sensor_id;sensor_type;location;lat;lon;timestamp;P1;durP1;ratioP1;P2;durP2;ratioP2
21527;SDS011;10925;49.102;-0.370;2023-06-22T00:01:52;12.73;;;7.07;;
21527;SDS011;10925;49.102;-0.370;2023-06-22T00:04:19;11.07;;;6.38;;
21527;SDS011;10925;49.102;-0.370;2023-06-22T00:06:46;11.23;;;6.70;;
21527;SDS011;10925;49.102;-0.370;2023-06-22T00:09:11;13.32;;;7.30;;
21527;SDS011;10925;49.102;-0.370;2023-06-22T00:11:37;11.00;;;6.60;;
21527;SDS011;10925;49.102;-0.370;2023-06-22T00:14:04;8.48;;;6.32;;
21527;SDS011;10925;49.102;-0.370;2023-06-22T00:16:31;12.88;;;6.18;;
21527;SDS011;10925;49.102;-0.370;2023-06-22T00:18:58;12.68;;;7.53;;
21527;SDS011;10925;49.102;-0.370;2023-06-22T00:21:27;15.18;;;7.60;;
21527;SDS011;10925;49.102;-0.370;2023-06-22T00:23:53;13.85;;;7.55;;
21527;SDS011;10925;49.102;-0.370;2023-06-22T00:26:20;12.00;;;7.05;;
21527;SDS011;10925;49.102;-0.370;2023-06-22T00:28:46;13.57;;;7.40;;
21527;SDS011;10925;49.102;-0.370;2023-06-22T00:31:13;11.70;;;6.35;;
21527;SDS011;10925;49.102;-0.370;2023-06-22T00:33:40;11.50;;;7.03;;
21527;SDS011;10925;49.102;-0.370;2023-06-22T00:36:05;9.07;;;6.32;;
21527;SDS011;10925;49.102;-0.370;2023-06-22T00:38:33;8.40;;;6.18;;
21527;SDS011;10925;49.102;-0.370;2023-06-22T00:40:58;11.05;;;7.05;;
21527;SDS011;10925;49.102;-0.370;2023-06-22T00:43:25;11.25;;;7.35;;
21527;SDS011;10925;49.102;-0.370;2023-06-22T00:45:52;12.35;;;6.65;;
21527;SDS011;10925;49.102;-0.370;2023-06-22T00:48:18;11.63;;;6.50;;
21527;SDS011;10925;49.102;-0.370;2023-06-22T00:50:46;13.77;;;7.00;;
21527;SDS011;10925;49.102;-0.370;2023-06-22T00:53:15;12.85;;;6.97;;
21527;SDS011;10925;49.102;-0.370;2023-06-22T00:55:44;12.18;;;7.30;;
21527;SDS011;10925;49.102;-0.370;2023-06-22T00:58:12;14.73;;;7.50;;
21527;SDS011;10925;49.102;-0.370;2023-06-22T01:00:38;10.20;;;7.15;;
21527;SDS011;10925;49.102;-0.370;2023-06-22T01:03:05;15.55;;;7.18;;
21527;SDS011;10925;49.102;-0.370;2023-06-22T01:05:37;11.65;;;7.43;;
21527;SDS011;10925;49.102;-0.370;2023-06-22T01:13:10;10.15;;;6.97;;
21527;SDS011;10925;49.102;-0.370;2023-06-22T01:15:58;13.68;;;7.28;;
21527;SDS011;10925;49.102;-0.370;2023-06-22T01:18:25;14.13;;;7.88;;
21527;SDS011;10925;49.102;-0.370;2023-06-22T01:20:55;11.52;;;7.63;;
21527;SDS011;10925;49.102;-0.370;2023-06-22T01:23:40;16.65;;;6.95;;
21527;SDS011;10925;49.102;-0.370;2023-06-22T01:26:33;15.23;;;6.53;;
21527;SDS011;10925;49.102;-0.370;2023-06-22T01:29:01;15.07;;;7.45;;
21527;SDS011;10925;49.102;-0.370;2023-06-22T01:31:30;18.92;;;7.93;;
21527;SDS011;10925;49.102;-0.370;2023-06-22T01:34:02;14.13;;;7.07;;
21527;SDS011;10925;49.102;-0.370;2023-06-22T01:36:29;14.52;;;6.88;;
21527;SDS011;10925;49.102;-0.370;2023-06-22T01:38:57;11.32;;;7.20;;
21527;SDS011;10925;49.102;-0.370;2023-06-22T01:41:28;16.45;;;7.18;;
21527;SDS011;10925;49.102;-0.370;2023-06-22T01:43:55;12.95;;;7.22;;
21527;SDS011;10925;49.102;-0.370;2023-06-22T01:46:21;20.67;;;7.90;;
21527;SDS011;10925;49.102;-0.370;2023-06-22T01:48:47;18.98;;;7.03;;
21527;SDS011;10925;49.102;-0.370;2023-06-22T01:51:15;18.95;;;7.55;;
21527;SDS011;10925;49.102;-0.370;2023-06-22T01:53:42;15.07;;;7.90;;
21527;SDS011;10925;49.102;-0.370;2023-06-22T01:56:09;15.27;;;7.30;;
21527;SDS011;10925;49.102;-0.370;2023-06-22T02:01:23;14.75;;;7.72;;
21527;SDS011;10925;49.102;-0.370;2023-06-22T02:03:58;20.00;;;8.00;;
21527;SDS011;10925;49.102;-0.370;2023-06-22T02:06:29;19.67;;;8.10;;
21527;SDS011;10925;49.102;-0.370;2023-06-22T02:09:02;20.65;;;9.05;;
21527;SDS011;10925;49.102;-0.370;2023-06-22T02:11:29;24.05;;;8.32;;
21527;SDS011;10925;49.102;-0.370;2023-06-22T02:13:57;16.27;;;8.82;;
21527;SDS011;10925;49.102;-0.370;2023-06-22T02:16:24;22.08;;;8.52;;
21527;SDS011;10925;49.102;-0.370;2023-06-22T02:18:51;27.55;;;10.55;;
21527;SDS011;10925;49.102;-0.370;2023-06-22T02:21:18;23.98;;;9.45;;
21527;SDS011;10925;49.102;-0.370;2023-06-22T02:23:45;21.52;;;10.18;;
21527;SDS011;10925;49.102;-0.370;2023-06-22T02:26:13;27.58;;;10.95;;
21527;SDS011;10925;49.102;-0.370;2023-06-22T02:28:39;26.80;;;10.27;;
21527;SDS011;10925;49.102;-0.370;2023-06-22T02:31:05;29.67;;;10.82;;
21527;SDS011;10925;49.102;-0.370;2023-06-22T02:33:30;25.55;;;10.60;;
21527;SDS011;10925;49.102;-0.370;2023-06-22T02:35:56;23.60;;;10.35;;
21527;SDS011;10925;49.102;-0.370;2023-06-22T02:38:22;31.15;;;11.00;;
21527;SDS011;10925;49.102;-0.370;2023-06-22T02:40:51;30.35;;;10.88;;
21527;SDS011;10925;49.102;-0.370;2023-06-22T02:43:17;25.05;;;11.10;;
21527;SDS011;10925;49.102;-0.370;2023-06-22T02:45:44;20.25;;;9.75;;
21527;SDS011;10925;49.102;-0.370;2023-06-22T02:48:11;24.92;;;10.68;;
21527;SDS011;10925;49.102;-0.370;2023-06-22T02:50:38;30.45;;;10.32;;
21527;SDS011;10925;49.102;-0.370;2023-06-22T02:53:03;24.90;;;10.48;;
21527;SDS011;10925;49.102;-0.370;2023-06-22T02:55:29;29.77;;;11.10;;
21527;SDS011;10925;49.102;-0.370;2023-06-22T02:57:57;25.98;;;10.77;;
21527;SDS011;10925;49.102;-0.370;2023-06-22T03:00:25;23.80;;;11.48;;
21527;SDS011;10925;49.102;-0.370;2023-06-22T03:02:58;26.13;;;10.85;;
21527;SDS011;10925;49.102;-0.370;2023-06-22T03:05:25;30.23;;;10.82;;
21527;SDS011;10925;49.102;-0.370;2023-06-22T03:07:53;26.88;;;10.88;;
21527;SDS011;10925;49.102;-0.370;2023-06-22T03:10:21;24.25;;;10.35;;
21527;SDS011;10925;49.102;-0.370;2023-06-22T03:12:51;22.20;;;10.23;;
21527;SDS011;10925;49.102;-0.370;2023-06-22T03:15:23;23.58;;;10.02;;
21527;SDS011;10925;49.102;-0.370;2023-06-22T03:17:57;23.15;;;9.82;;
21527;SDS011;10925;49.102;-0.370;2023-06-22T03:20:36;23.00;;;10.05;;
21527;SDS011;10925;49.102;-0.370;2023-06-22T03:23:11;20.65;;;9.52;;
21527;SDS011;10925;49.102;-0.370;2023-06-22T03:25:37;20.00;;;9.23;;
21527;SDS011;10925;49.102;-0.370;2023-06-22T03:28:08;22.98;;;10.63;;
21527;SDS011;10925;49.102;-0.370;2023-06-22T03:30:36;20.35;;;9.32;;
21527;SDS011;10925;49.102;-0.370;2023-06-22T03:33:01;17.92;;;9.20;;
21527;SDS011;10925;49.102;-0.370;2023-06-22T03:35:28;27.95;;;9.98;;
21527;SDS011;10925;49.102;-0.370;2023-06-22T03:37:55;20.17;;;9.63;;
21527;SDS011;10925;49.102;-0.370;2023-06-22T03:40:22;25.90;;;10.52;;
21527;SDS011;10925;49.102;-0.370;2023-06-22T03:42:47;24.60;;;10.27;;
21527;SDS011;10925;49.102;-0.370;2023-06-22T03:45:14;24.48;;;10.98;;
21527;SDS011;10925;49.102;-0.370;2023-06-22T03:47:41;23.38;;;11.10;;
21527;SDS011;10925;49.102;-0.370;2023-06-22T03:50:08;25.08;;;11.05;;
21527;SDS011;10925;49.102;-0.370;2023-06-22T03:52:35;26.13;;;10.68;;
21527;SDS011;10925;49.102;-0.370;2023-06-22T03:55:02;27.35;;;11.15;;
21527;SDS011;10925;49.102;-0.370;2023-06-22T03:57:29;23.45;;;9.63;;
21527;SDS011;10925;49.102;-0.370;2023-06-22T03:59:56;23.58;;;10.20;;
21527;SDS011;10925;49.102;-0.370;2023-06-22T04:02:23;23.17;;;9.20;;
21527;SDS011;10925;49.102;-0.370;2023-06-22T04:04:48;23.17;;;9.65;;
21527;SDS011;10925;49.102;-0.370;2023-06-22T04:07:15;24.00;;;9.05;;
21527;SDS011;10925;49.102;-0.370;2023-06-22T04:12:35;21.75;;;8.80;;
21527;SDS011;10925;49.102;-0.370;2023-06-22T04:15:02;23.75;;;8.55;;
21527;SDS011;10925;49.102;-0.370;2023-06-22T04:17:29;27.80;;;9.25;;
21527;SDS011;10925;49.102;-0.370;2023-06-22T04:19:56;27.05;;;9.85;;
21527;SDS011;10925;49.102;-0.370;2023-06-22T04:22:23;23.05;;;8.93;;
21527;SDS011;10925;49.102;-0.370;2023-06-22T04:24:49;29.63;;;9.32;;
21527;SDS011;10925;49.102;-0.370;2023-06-22T04:27:18;23.65;;;8.57;;
21527;SDS011;10925;49.102;-0.370;2023-06-22T04:29:45;26.83;;;8.45;;
21527;SDS011;10925;49.102;-0.370;2023-06-22T04:32:15;20.67;;;7.88;;
21527;SDS011;10925;49.102;-0.370;2023-06-22T04:37:08;15.43;;;7.05;;
21527;SDS011;10925;49.102;-0.370;2023-06-22T04:39:35;19.85;;;6.88;;
21527;SDS011;10925;49.102;-0.370;2023-06-22T04:42:02;17.45;;;6.70;;
21527;SDS011;10925;49.102;-0.370;2023-06-22T04:44:30;15.13;;;6.18;;
21527;SDS011;10925;49.102;-0.370;2023-06-22T04:46:57;19.80;;;7.72;;
21527;SDS011;10925;49.102;-0.370;2023-06-22T04:49:30;17.10;;;6.88;;
21527;SDS011;10925;49.102;-0.370;2023-06-22T04:52:00;15.25;;;6.13;;
21527;SDS011;10925;49.102;-0.370;2023-06-22T04:54:25;18.92;;;6.88;;
21527;SDS011;10925;49.102;-0.370;2023-06-22T04:56:52;22.95;;;7.35;;
21527;SDS011;10925;49.102;-0.370;2023-06-22T04:59:23;15.30;;;6.57;;
21527;SDS011;10925;49.102;-0.370;2023-06-22T05:01:53;18.58;;;6.82;;
21527;SDS011;10925;49.102;-0.370;2023-06-22T05:04:19;19.67;;;6.22;;
21527;SDS011;10925;49.102;-0.370;2023-06-22T05:06:44;20.08;;;7.40;;
21527;SDS011;10925;49.102;-0.370;2023-06-22T05:09:10;14.98;;;6.20;;
21527;SDS011;10925;49.102;-0.370;2023-06-22T05:11:38;15.85;;;6.28;;
21527;SDS011;10925;49.102;-0.370;2023-06-22T05:14:05;19.15;;;6.50;;
21527;SDS011;10925;49.102;-0.370;2023-06-22T05:16:32;13.07;;;5.30;;
21527;SDS011;10925;49.102;-0.370;2023-06-22T05:18:58;15.68;;;5.72;;
21527;SDS011;10925;49.102;-0.370;2023-06-22T05:21:26;17.02;;;6.20;;
21527;SDS011;10925;49.102;-0.370;2023-06-22T05:23:53;18.38;;;5.70;;
21527;SDS011;10925;49.102;-0.370;2023-06-22T05:26:20;13.05;;;5.00;;
21527;SDS011;10925;49.102;-0.370;2023-06-22T05:28:47;12.80;;;5.63;;
21527;SDS011;10925;49.102;-0.370;2023-06-22T05:31:14;15.65;;;5.18;;
21527;SDS011;10925;49.102;-0.370;2023-06-22T05:33:40;14.90;;;5.40;;
21527;SDS011;10925;49.102;-0.370;2023-06-22T05:36:07;11.80;;;5.57;;
21527;SDS011;10925;49.102;-0.370;2023-06-22T05:38:35;10.07;;;4.63;;
21527;SDS011;10925;49.102;-0.370;2023-06-22T05:41:00;8.43;;;5.00;;
21527;SDS011;10925;49.102;-0.370;2023-06-22T05:43:27;10.82;;;5.32;;
21527;SDS011;10925;49.102;-0.370;2023-06-22T05:45:54;14.95;;;5.30;;
21527;SDS011;10925;49.102;-0.370;2023-06-22T05:48:21;14.18;;;5.45;;
21527;SDS011;10925;49.102;-0.370;2023-06-22T05:50:48;10.10;;;5.00;;
21527;SDS011;10925;49.102;-0.370;2023-06-22T05:53:15;10.95;;;4.82;;
21527;SDS011;10925;49.102;-0.370;2023-06-22T05:55:40;8.85;;;4.38;;
21527;SDS011;10925;49.102;-0.370;2023-06-22T05:58:07;13.48;;;4.65;;
21527;SDS011;10925;49.102;-0.370;2023-06-22T06:00:34;8.30;;;4.30;;
21527;SDS011;10925;49.102;-0.370;2023-06-22T06:03:01;8.20;;;4.28;;
21527;SDS011;10925;49.102;-0.370;2023-06-22T06:05:30;10.95;;;4.00;;
21527;SDS011;10925;49.102;-0.370;2023-06-22T06:07:57;10.27;;;4.63;;
21527;SDS011;10925;49.102;-0.370;2023-06-22T06:10:24;6.43;;;4.32;;
21527;SDS011;10925;49.102;-0.370;2023-06-22T06:15:34;10.25;;;3.92;;
21527;SDS011;10925;49.102;-0.370;2023-06-22T06:18:01;9.25;;;4.25;;
21527;SDS011;10925;49.102;-0.370;2023-06-22T06:20:30;7.00;;;3.67;;
21527;SDS011;10925;49.102;-0.370;2023-06-22T06:22:58;6.75;;;3.72;;
21527;SDS011;10925;49.102;-0.370;2023-06-22T06:25:23;8.60;;;3.92;;
21527;SDS011;10925;49.102;-0.370;2023-06-22T06:27:50;5.88;;;3.70;;
21527;SDS011;10925;49.102;-0.370;2023-06-22T06:30:16;7.30;;;3.85;;
21527;SDS011;10925;49.102;-0.370;2023-06-22T06:32:44;10.30;;;4.32;;
21527;SDS011;10925;49.102;-0.370;2023-06-22T06:35:21;6.93;;;3.67;;
21527;SDS011;10925;49.102;-0.370;2023-06-22T06:37:49;6.07;;;3.78;;
21527;SDS011;10925;49.102;-0.370;2023-06-22T06:40:16;5.53;;;3.60;;
21527;SDS011;10925;49.102;-0.370;2023-06-22T06:42:44;6.65;;;3.63;;
21527;SDS011;10925;49.102;-0.370;2023-06-22T06:45:11;11.55;;;3.60;;
21527;SDS011;10925;49.102;-0.370;2023-06-22T06:47:38;6.60;;;3.58;;
21527;SDS011;10925;49.102;-0.370;2023-06-22T06:50:06;8.63;;;3.80;;
21527;SDS011;10925;49.102;-0.370;2023-06-22T06:52:33;6.32;;;3.88;;
21527;SDS011;10925;49.102;-0.370;2023-06-22T06:55:03;7.25;;;3.30;;
21527;SDS011;10925;49.102;-0.370;2023-06-22T06:57:33;5.47;;;3.80;;
21527;SDS011;10925;49.102;-0.370;2023-06-22T07:00:00;9.80;;;4.00;;
21527;SDS011;10925;49.102;-0.370;2023-06-22T07:02:27;7.18;;;3.88;;
21527;SDS011;10925;49.102;-0.370;2023-06-22T07:04:56;8.65;;;4.43;;
21527;SDS011;10925;49.102;-0.370;2023-06-22T07:07:23;5.90;;;3.92;;
21527;SDS011;10925;49.102;-0.370;2023-06-22T07:09:50;7.32;;;3.67;;
21527;SDS011;10925;49.102;-0.370;2023-06-22T07:12:17;8.55;;;3.80;;
21527;SDS011;10925;49.102;-0.370;2023-06-22T07:14:42;10.30;;;4.72;;
21527;SDS011;10925;49.102;-0.370;2023-06-22T07:17:07;7.07;;;3.70;;
21527;SDS011;10925;49.102;-0.370;2023-06-22T07:19:33;4.75;;;3.70;;
21527;SDS011;10925;49.102;-0.370;2023-06-22T07:21:58;7.22;;;4.15;;
21527;SDS011;10925;49.102;-0.370;2023-06-22T07:24:26;8.30;;;4.38;;
21527;SDS011;10925;49.102;-0.370;2023-06-22T07:26:56;8.07;;;4.22;;
21527;SDS011;10925;49.102;-0.370;2023-06-22T07:29:26;7.78;;;4.55;;
21527;SDS011;10925;49.102;-0.370;2023-06-22T07:32:02;8.20;;;4.13;;
21527;SDS011;10925;49.102;-0.370;2023-06-22T07:34:30;9.95;;;3.72;;
21527;SDS011;10925;49.102;-0.370;2023-06-22T07:36:55;7.95;;;3.95;;
21527;SDS011;10925;49.102;-0.370;2023-06-22T07:39:22;10.82;;;4.53;;
21527;SDS011;10925;49.102;-0.370;2023-06-22T07:41:51;8.82;;;3.90;;
21527;SDS011;10925;49.102;-0.370;2023-06-22T07:44:20;4.97;;;3.55;;
21527;SDS011;10925;49.102;-0.370;2023-06-22T07:46:48;6.55;;;3.55;;
21527;SDS011;10925;49.102;-0.370;2023-06-22T07:49:16;7.15;;;3.90;;
21527;SDS011;10925;49.102;-0.370;2023-06-22T07:51:43;7.18;;;3.80;;
21527;SDS011;10925;49.102;-0.370;2023-06-22T07:54:13;9.30;;;3.60;;
21527;SDS011;10925;49.102;-0.370;2023-06-22T07:56:42;12.07;;;3.60;;
21527;SDS011;10925;49.102;-0.370;2023-06-22T07:59:11;8.52;;;3.65;;
21527;SDS011;10925;49.102;-0.370;2023-06-22T08:01:38;6.65;;;3.50;;
21527;SDS011;10925;49.102;-0.370;2023-06-22T08:04:03;7.07;;;3.60;;
21527;SDS011;10925;49.102;-0.370;2023-06-22T08:06:30;8.18;;;3.97;;
21527;SDS011;10925;49.102;-0.370;2023-06-22T08:08:57;9.27;;;3.40;;
21527;SDS011;10925;49.102;-0.370;2023-06-22T08:11:24;9.48;;;3.70;;
21527;SDS011;10925;49.102;-0.370;2023-06-22T08:13:52;8.93;;;3.90;;
21527;SDS011;10925;49.102;-0.370;2023-06-22T08:16:18;9.63;;;3.75;;
21527;SDS011;10925;49.102;-0.370;2023-06-22T08:18:45;6.70;;;3.63;;
21527;SDS011;10925;49.102;-0.370;2023-06-22T08:21:12;6.82;;;3.58;;
21527;SDS011;10925;49.102;-0.370;2023-06-22T08:23:39;6.57;;;3.53;;
21527;SDS011;10925;49.102;-0.370;2023-06-22T08:26:07;6.90;;;3.97;;
21527;SDS011;10925;49.102;-0.370;2023-06-22T08:31:56;5.72;;;3.85;;
21527;SDS011;10925;49.102;-0.370;2023-06-22T08:34:21;7.10;;;3.22;;
21527;SDS011;10925;49.102;-0.370;2023-06-22T08:36:50;8.32;;;4.25;;
21527;SDS011;10925;49.102;-0.370;2023-06-22T08:39:17;9.63;;;4.13;;
21527;SDS011;10925;49.102;-0.370;2023-06-22T08:41:42;6.40;;;3.97;;
21527;SDS011;10925;49.102;-0.370;2023-06-22T08:44:08;7.07;;;3.88;;
21527;SDS011;10925;49.102;-0.370;2023-06-22T08:46:34;9.38;;;3.80;;
21527;SDS011;10925;49.102;-0.370;2023-06-22T08:48:59;8.75;;;3.95;;
21527;SDS011;10925;49.102;-0.370;2023-06-22T08:51:25;8.00;;;4.15;;
21527;SDS011;10925;49.102;-0.370;2023-06-22T08:53:52;7.20;;;3.55;;
21527;SDS011;10925;49.102;-0.370;2023-06-22T08:56:19;7.13;;;3.35;;
21527;SDS011;10925;49.102;-0.370;2023-06-22T08:58:46;10.00;;;3.70;;
21527;SDS011;10925;49.102;-0.370;2023-06-22T09:01:12;6.68;;;3.45;;
21527;SDS011;10925;49.102;-0.370;2023-06-22T09:03:41;8.23;;;3.97;;
21527;SDS011;10925;49.102;-0.370;2023-06-22T09:06:07;9.05;;;3.92;;
21527;SDS011;10925;49.102;-0.370;2023-06-22T09:08:36;6.75;;;3.95;;
21527;SDS011;10925;49.102;-0.370;2023-06-22T09:11:01;9.52;;;3.92;;
21527;SDS011;10925;49.102;-0.370;2023-06-22T09:13:29;6.75;;;3.78;;
21527;SDS011;10925;49.102;-0.370;2023-06-22T09:15:57;5.57;;;3.92;;
21527;SDS011;10925;49.102;-0.370;2023-06-22T09:18:23;6.25;;;3.58;;
21527;SDS011;10925;49.102;-0.370;2023-06-22T09:20:50;7.63;;;4.03;;
21527;SDS011;10925;49.102;-0.370;2023-06-22T09:23:16;6.95;;;3.45;;
21527;SDS011;10925;49.102;-0.370;2023-06-22T09:25:41;5.95;;;3.40;;
21527;SDS011;10925;49.102;-0.370;2023-06-22T09:28:07;7.63;;;3.72;;
21527;SDS011;10925;49.102;-0.370;2023-06-22T09:30:34;6.07;;;3.55;;
21527;SDS011;10925;49.102;-0.370;2023-06-22T09:33:00;6.53;;;3.70;;
21527;SDS011;10925;49.102;-0.370;2023-06-22T09:35:28;6.18;;;3.65;;
21527;SDS011;10925;49.102;-0.370;2023-06-22T09:40:56;5.95;;;3.65;;
21527;SDS011;10925;49.102;-0.370;2023-06-22T09:43:21;5.53;;;3.42;;
21527;SDS011;10925;49.102;-0.370;2023-06-22T09:45:47;6.20;;;3.10;;
21527;SDS011;10925;49.102;-0.370;2023-06-22T09:48:14;9.90;;;3.47;;
21527;SDS011;10925;49.102;-0.370;2023-06-22T09:50:39;9.10;;;3.97;;
21527;SDS011;10925;49.102;-0.370;2023-06-22T09:53:05;6.55;;;3.60;;
21527;SDS011;10925;49.102;-0.370;2023-06-22T09:55:32;6.07;;;3.20;;
21527;SDS011;10925;49.102;-0.370;2023-06-22T09:58:02;7.03;;;3.35;;
21527;SDS011;10925;49.102;-0.370;2023-06-22T10:00:29;6.47;;;3.45;;
21527;SDS011;10925;49.102;-0.370;2023-06-22T10:03:01;9.93;;;3.50;;
21527;SDS011;10925;49.102;-0.370;2023-06-22T10:05:31;6.85;;;3.83;;
21527;SDS011;10925;49.102;-0.370;2023-06-22T10:07:57;6.40;;;3.70;;
21527;SDS011;10925;49.102;-0.370;2023-06-22T10:10:22;5.68;;;3.70;;
21527;SDS011;10925;49.102;-0.370;2023-06-22T10:15:51;6.22;;;3.25;;
21527;SDS011;10925;49.102;-0.370;2023-06-22T10:21:20;9.07;;;3.65;;
21527;SDS011;10925;49.102;-0.370;2023-06-22T10:23:45;11.18;;;3.53;;
21527;SDS011;10925;49.102;-0.370;2023-06-22T10:26:11;8.70;;;3.58;;
21527;SDS011;10925;49.102;-0.370;2023-06-22T10:28:36;6.38;;;3.20;;
21527;SDS011;10925;49.102;-0.370;2023-06-22T10:31:03;6.80;;;3.38;;
21527;SDS011;10925;49.102;-0.370;2023-06-22T10:33:30;6.55;;;3.50;;
21527;SDS011;10925;49.102;-0.370;2023-06-22T10:35:57;8.13;;;3.30;;
21527;SDS011;10925;49.102;-0.370;2023-06-22T10:38:22;5.90;;;3.25;;
21527;SDS011;10925;49.102;-0.370;2023-06-22T10:40:49;7.65;;;3.92;;
21527;SDS011;10925;49.102;-0.370;2023-06-22T10:43:15;10.05;;;3.85;;
21527;SDS011;10925;49.102;-0.370;2023-06-22T10:45:42;6.30;;;3.38;;
21527;SDS011;10925;49.102;-0.370;2023-06-22T10:48:09;9.05;;;3.63;;
21527;SDS011;10925;49.102;-0.370;2023-06-22T10:53:31;8.45;;;3.78;;
21527;SDS011;10925;49.102;-0.370;2023-06-22T10:55:58;4.93;;;3.40;;
21527;SDS011;10925;49.102;-0.370;2023-06-22T10:58:25;8.07;;;3.92;;
21527;SDS011;10925;49.102;-0.370;2023-06-22T11:00:51;7.13;;;3.25;;
21527;SDS011;10925;49.102;-0.370;2023-06-22T11:03:18;6.97;;;3.30;;
21527;SDS011;10925;49.102;-0.370;2023-06-22T11:05:45;8.00;;;3.75;;
21527;SDS011;10925;49.102;-0.370;2023-06-22T11:08:14;5.55;;;3.35;;
21527;SDS011;10925;49.102;-0.370;2023-06-22T11:10:40;6.22;;;3.33;;
21527;SDS011;10925;49.102;-0.370;2023-06-22T11:13:06;6.65;;;3.60;;
21527;SDS011;10925;49.102;-0.370;2023-06-22T11:15:40;7.00;;;3.60;;
21527;SDS011;10925;49.102;-0.370;2023-06-22T11:18:06;7.05;;;3.42;;
21527;SDS011;10925;49.102;-0.370;2023-06-22T11:20:34;7.63;;;3.63;;
21527;SDS011;10925;49.102;-0.370;2023-06-22T11:23:05;8.10;;;3.03;;
21527;SDS011;10925;49.102;-0.370;2023-06-22T11:25:33;7.47;;;3.45;;
21527;SDS011;10925;49.102;-0.370;2023-06-22T11:28:03;5.70;;;3.53;;
21527;SDS011;10925;49.102;-0.370;2023-06-22T11:30:29;4.18;;;3.05;;
21527;SDS011;10925;49.102;-0.370;2023-06-22T11:32:56;4.22;;;2.60;;
21527;SDS011;10925;49.102;-0.370;2023-06-22T11:35:21;4.65;;;3.35;;
21527;SDS011;10925;49.102;-0.370;2023-06-22T11:37:49;7.07;;;3.50;;
21527;SDS011;10925;49.102;-0.370;2023-06-22T11:40:20;6.38;;;3.70;;
21527;SDS011;10925;49.102;-0.370;2023-06-22T11:42:47;7.13;;;4.05;;
21527;SDS011;10925;49.102;-0.370;2023-06-22T11:45:18;7.20;;;4.00;;
21527;SDS011;10925;49.102;-0.370;2023-06-22T11:47:46;4.78;;;3.20;;
21527;SDS011;10925;49.102;-0.370;2023-06-22T11:50:13;13.63;;;3.70;;
21527;SDS011;10925;49.102;-0.370;2023-06-22T11:52:39;5.63;;;3.35;;
21527;SDS011;10925;49.102;-0.370;2023-06-22T11:55:06;8.50;;;3.67;;
21527;SDS011;10925;49.102;-0.370;2023-06-22T11:57:33;5.72;;;3.10;;
21527;SDS011;10925;49.102;-0.370;2023-06-22T12:00:05;5.70;;;3.45;;
21527;SDS011;10925;49.102;-0.370;2023-06-22T12:02:42;8.10;;;4.15;;
21527;SDS011;10925;49.102;-0.370;2023-06-22T12:05:09;7.55;;;4.05;;
21527;SDS011;10925;49.102;-0.370;2023-06-22T12:07:36;8.48;;;3.20;;
21527;SDS011;10925;49.102;-0.370;2023-06-22T12:10:04;5.88;;;3.60;;
21527;SDS011;10925;49.102;-0.370;2023-06-22T12:12:37;6.22;;;3.50;;
21527;SDS011;10925;49.102;-0.370;2023-06-22T12:15:06;6.40;;;3.15;;
21527;SDS011;10925;49.102;-0.370;2023-06-22T12:17:33;4.10;;;2.90;;
21527;SDS011;10925;49.102;-0.370;2023-06-22T12:23:33;8.13;;;2.80;;
21527;SDS011;10925;49.102;-0.370;2023-06-22T12:25:59;4.22;;;3.22;;
21527;SDS011;10925;49.102;-0.370;2023-06-22T12:28:30;5.15;;;2.45;;
21527;SDS011;10925;49.102;-0.370;2023-06-22T12:30:59;5.38;;;3.47;;
21527;SDS011;10925;49.102;-0.370;2023-06-22T12:33:28;5.50;;;2.55;;
21527;SDS011;10925;49.102;-0.370;2023-06-22T12:35:58;6.13;;;2.75;;
21527;SDS011;10925;49.102;-0.370;2023-06-22T12:38:27;5.65;;;2.25;;
21527;SDS011;10925;49.102;-0.370;2023-06-22T12:40:54;6.97;;;2.72;;
21527;SDS011;10925;49.102;-0.370;2023-06-22T12:43:20;3.10;;;2.30;;
21527;SDS011;10925;49.102;-0.370;2023-06-22T12:45:52;4.43;;;2.75;;
21527;SDS011;10925;49.102;-0.370;2023-06-22T12:51:23;5.30;;;2.78;;
21527;SDS011;10925;49.102;-0.370;2023-06-22T12:53:50;5.38;;;2.53;;
21527;SDS011;10925;49.102;-0.370;2023-06-22T12:56:24;4.63;;;2.70;;
21527;SDS011;10925;49.102;-0.370;2023-06-22T12:58:49;5.05;;;2.92;;
21527;SDS011;10925;49.102;-0.370;2023-06-22T13:01:17;7.13;;;2.65;;
21527;SDS011;10925;49.102;-0.370;2023-06-22T13:03:43;5.95;;;2.70;;
21527;SDS011;10925;49.102;-0.370;2023-06-22T13:06:08;5.07;;;2.47;;
21527;SDS011;10925;49.102;-0.370;2023-06-22T13:08:37;6.97;;;2.83;;
21527;SDS011;10925;49.102;-0.370;2023-06-22T13:11:37;6.50;;;2.80;;
21527;SDS011;10925;49.102;-0.370;2023-06-22T13:14:13;5.40;;;2.63;;
21527;SDS011;10925;49.102;-0.370;2023-06-22T13:16:47;2.95;;;2.30;;
21527;SDS011;10925;49.102;-0.370;2023-06-22T13:19:21;4.38;;;2.13;;
21527;SDS011;10925;49.102;-0.370;2023-06-22T13:21:48;4.40;;;2.25;;
21527;SDS011;10925;49.102;-0.370;2023-06-22T13:24:15;3.75;;;2.55;;
21527;SDS011;10925;49.102;-0.370;2023-06-22T13:26:42;2.35;;;1.90;;
21527;SDS011;10925;49.102;-0.370;2023-06-22T13:29:09;3.75;;;2.38;;
21527;SDS011;10925;49.102;-0.370;2023-06-22T13:31:37;4.75;;;2.08;;
21527;SDS011;10925;49.102;-0.370;2023-06-22T13:34:03;3.53;;;2.30;;
21527;SDS011;10925;49.102;-0.370;2023-06-22T13:36:29;2.88;;;2.10;;
21527;SDS011;10925;49.102;-0.370;2023-06-22T13:38:59;3.63;;;2.20;;
21527;SDS011;10925;49.102;-0.370;2023-06-22T13:41:26;4.10;;;2.22;;
21527;SDS011;10925;49.102;-0.370;2023-06-22T13:43:56;3.08;;;2.33;;
21527;SDS011;10925;49.102;-0.370;2023-06-22T13:46:24;6.90;;;2.42;;
21527;SDS011;10925;49.102;-0.370;2023-06-22T13:48:51;3.70;;;2.30;;
21527;SDS011;10925;49.102;-0.370;2023-06-22T13:51:22;4.63;;;2.75;;
21527;SDS011;10925;49.102;-0.370;2023-06-22T13:53:49;5.90;;;2.67;;
21527;SDS011;10925;49.102;-0.370;2023-06-22T13:56:15;5.32;;;2.72;;
21527;SDS011;10925;49.102;-0.370;2023-06-22T13:58:41;5.00;;;2.70;;
21527;SDS011;10925;49.102;-0.370;2023-06-22T14:01:08;5.07;;;2.90;;
21527;SDS011;10925;49.102;-0.370;2023-06-22T14:03:42;4.30;;;2.90;;
21527;SDS011;10925;49.102;-0.370;2023-06-22T14:06:12;4.63;;;2.55;;
21527;SDS011;10925;49.102;-0.370;2023-06-22T14:08:39;3.80;;;2.65;;
21527;SDS011;10925;49.102;-0.370;2023-06-22T14:11:07;5.90;;;2.75;;
21527;SDS011;10925;49.102;-0.370;2023-06-22T14:13:33;5.45;;;3.00;;
21527;SDS011;10925;49.102;-0.370;2023-06-22T14:16:02;4.15;;;2.78;;
21527;SDS011;10925;49.102;-0.370;2023-06-22T14:18:40;5.97;;;2.88;;
21527;SDS011;10925;49.102;-0.370;2023-06-22T14:21:13;6.10;;;3.00;;
21527;SDS011;10925;49.102;-0.370;2023-06-22T14:23:38;6.60;;;3.33;;
21527;SDS011;10925;49.102;-0.370;2023-06-22T14:26:03;6.03;;;3.65;;
21527;SDS011;10925;49.102;-0.370;2023-06-22T14:28:29;6.07;;;3.20;;
21527;SDS011;10925;49.102;-0.370;2023-06-22T14:34:18;11.60;;;3.88;;
21527;SDS011;10925;49.102;-0.370;2023-06-22T14:36:45;6.15;;;3.63;;
21527;SDS011;10925;49.102;-0.370;2023-06-22T14:39:12;6.70;;;3.28;;
21527;SDS011;10925;49.102;-0.370;2023-06-22T14:41:39;6.70;;;3.65;;
21527;SDS011;10925;49.102;-0.370;2023-06-22T14:44:04;8.05;;;3.55;;
21527;SDS011;10925;49.102;-0.370;2023-06-22T14:46:30;6.05;;;3.60;;
21527;SDS011;10925;49.102;-0.370;2023-06-22T14:48:57;6.85;;;3.45;;
21527;SDS011;10925;49.102;-0.370;2023-06-22T14:51:25;6.32;;;3.30;;
21527;SDS011;10925;49.102;-0.370;2023-06-22T14:53:53;6.32;;;3.40;;
21527;SDS011;10925;49.102;-0.370;2023-06-22T14:56:20;9.60;;;3.05;;
21527;SDS011;10925;49.102;-0.370;2023-06-22T14:58:56;7.40;;;3.15;;
21527;SDS011;10925;49.102;-0.370;2023-06-22T15:01:25;5.70;;;2.90;;
21527;SDS011;10925;49.102;-0.370;2023-06-22T15:03:56;5.13;;;3.17;;
21527;SDS011;10925;49.102;-0.370;2023-06-22T15:06:26;3.92;;;3.20;;
21527;SDS011;10925;49.102;-0.370;2023-06-22T15:08:54;4.80;;;3.13;;
21527;SDS011;10925;49.102;-0.370;2023-06-22T15:11:19;5.20;;;3.05;;
21527;SDS011;10925;49.102;-0.370;2023-06-22T15:13:46;4.43;;;2.97;;